This is the latest recevied weather packets stored in our database for station/object W5GMO. If no packets are shown the sender has not sent any weather packets the latest 1 day(s).
| Time | Temp. | Humidity | Pressure | Rain* | Wind** | Luminosity | Snow |
|---|---|---|---|---|---|---|---|
| 1778016856 | 28.89° C | 25% | 1009.3 hPa | 0 mm | - | 136 W/m² | - |
| 1778015339 | 28.89° C | 24% | 1009.1 hPa | 0 mm | - | 208 W/m² | - |
| 1778012006 | 30° C | 26% | 1009.2 hPa | 0 mm | - | 473 W/m² | - |
| 1778011704 | 30° C | 26% | 1009.2 hPa | 0 mm | - | 547 W/m² | - |
| 1778010188 | 29.44° C | 27% | 1009.6 hPa | 0 mm | - | 545 W/m² | - |
| 1778009883 | 29.44° C | 27% | 1009.5 hPa | 0 mm | - | 532 W/m² | - |
| 1778009581 | 29.44° C | 27% | 1009.6 hPa | 0 mm | - | 627 W/m² | - |
| 1778009279 | 29.44° C | 27% | 1009.6 hPa | 0 mm | - | 657 W/m² | - |
| 1778008674 | 29.44° C | 27% | 1009.8 hPa | 0 mm | - | 572 W/m² | - |
| 1778008068 | 29.44° C | 27% | 1010 hPa | 0 mm | - | 620 W/m² | - |
| 1778007460 | 29.44° C | 27% | 1010.2 hPa | 0 mm | - | 674 W/m² | - |
| 1778007157 | 28.89° C | 27% | 1010.3 hPa | 0 mm | - | 694 W/m² | - |
| 1778006247 | 28.89° C | 29% | 1010.7 hPa | 0 mm | - | 698 W/m² | - |
| 1778005338 | 28.89° C | 30% | 1010.9 hPa | 0 mm | - | 737 W/m² | - |
| 1778005034 | 28.89° C | 30% | 1010.7 hPa | 0 mm | - | 732 W/m² | - |
| 1778004732 | 28.33° C | 30% | 1011 hPa | 0 mm | - | 735 W/m² | - |
| 1778004428 | 28.89° C | 30% | 1010.9 hPa | 0 mm | - | 743 W/m² | - |
| 1778004125 | 28.89° C | 30% | 1011 hPa | 0 mm | - | 738 W/m² | - |
| 1778003214 | 28.33° C | 32% | 1011 hPa | 0 mm | - | 771 W/m² | - |
| 1778002910 | 28.33° C | 31% | 1011.1 hPa | 0 mm | - | 769 W/m² | - |
| 1778002607 | 28.33° C | 32% | 1011.1 hPa | 0 mm | - | 782 W/m² | - |
| 1778002304 | 27.78° C | 32% | 1011.1 hPa | 0 mm | - | 781 W/m² | - |
| 1777998972 | 27.22° C | 35% | 1011.8 hPa | 0 mm | - | 789 W/m² | - |
| 1777998669 | 27.22° C | 36% | 1012 hPa | 0 mm | - | 790 W/m² | - |
| 1777996853 | 26.11° C | 38% | 1012.5 hPa | 0 mm | - | 771 W/m² | - |
* Rain latest hour (hover to see other rain measurements)
** Current wind speed in m/s (hover to see current wind gust speed)